sensor_id;sensor_type;location;lat;lon;timestamp;P1;durP1;ratioP1;P2;durP2;ratioP2
19830;SDS011;10076;52.008;4.708;2022-11-15T00:00:19;26.40;;;8.60;;
19830;SDS011;10076;52.008;4.708;2022-11-15T00:02:45;24.83;;;8.43;;
19830;SDS011;10076;52.008;4.708;2022-11-15T00:05:10;28.17;;;9.07;;
19830;SDS011;10076;52.008;4.708;2022-11-15T00:07:35;29.77;;;10.87;;
19830;SDS011;10076;52.008;4.708;2022-11-15T00:10:00;27.60;;;9.07;;
19830;SDS011;10076;52.008;4.708;2022-11-15T00:12:27;24.30;;;9.70;;
19830;SDS011;10076;52.008;4.708;2022-11-15T00:14:53;26.23;;;9.47;;
19830;SDS011;10076;52.008;4.708;2022-11-15T00:17:18;23.30;;;9.50;;
19830;SDS011;10076;52.008;4.708;2022-11-15T00:19:43;27.10;;;9.43;;
19830;SDS011;10076;52.008;4.708;2022-11-15T00:22:09;30.33;;;8.90;;
19830;SDS011;10076;52.008;4.708;2022-11-15T00:24:34;31.87;;;10.13;;
19830;SDS011;10076;52.008;4.708;2022-11-15T00:26:59;24.30;;;8.80;;
19830;SDS011;10076;52.008;4.708;2022-11-15T00:29:24;26.37;;;9.63;;
19830;SDS011;10076;52.008;4.708;2022-11-15T00:31:50;29.67;;;9.40;;
19830;SDS011;10076;52.008;4.708;2022-11-15T00:34:15;26.10;;;9.40;;
19830;SDS011;10076;52.008;4.708;2022-11-15T00:36:40;27.33;;;9.63;;
19830;SDS011;10076;52.008;4.708;2022-11-15T00:39:06;24.03;;;9.83;;
19830;SDS011;10076;52.008;4.708;2022-11-15T00:41:31;22.47;;;9.60;;
19830;SDS011;10076;52.008;4.708;2022-11-15T00:43:56;24.20;;;9.10;;
19830;SDS011;10076;52.008;4.708;2022-11-15T00:46:21;30.37;;;10.67;;
19830;SDS011;10076;52.008;4.708;2022-11-15T00:48:47;28.43;;;9.10;;
19830;SDS011;10076;52.008;4.708;2022-11-15T00:51:12;29.47;;;10.80;;
19830;SDS011;10076;52.008;4.708;2022-11-15T00:53:37;23.17;;;8.67;;
19830;SDS011;10076;52.008;4.708;2022-11-15T00:56:03;29.73;;;9.43;;
19830;SDS011;10076;52.008;4.708;2022-11-15T00:58:28;26.53;;;8.97;;
19830;SDS011;10076;52.008;4.708;2022-11-15T01:00:54;30.27;;;9.90;;
19830;SDS011;10076;52.008;4.708;2022-11-15T01:03:19;23.53;;;9.30;;
19830;SDS011;10076;52.008;4.708;2022-11-15T01:05:45;28.87;;;9.70;;
19830;SDS011;10076;52.008;4.708;2022-11-15T01:08:16;28.13;;;9.87;;
19830;SDS011;10076;52.008;4.708;2022-11-15T01:10:42;27.30;;;9.83;;
19830;SDS011;10076;52.008;4.708;2022-11-15T01:13:07;29.17;;;10.43;;
19830;SDS011;10076;52.008;4.708;2022-11-15T01:15:33;33.53;;;10.53;;
19830;SDS011;10076;52.008;4.708;2022-11-15T01:17:58;31.47;;;8.97;;
19830;SDS011;10076;52.008;4.708;2022-11-15T01:20:23;26.73;;;9.87;;
19830;SDS011;10076;52.008;4.708;2022-11-15T01:22:49;37.57;;;10.63;;
19830;SDS011;10076;52.008;4.708;2022-11-15T01:25:14;25.07;;;9.77;;
19830;SDS011;10076;52.008;4.708;2022-11-15T01:27:39;26.57;;;9.70;;
19830;SDS011;10076;52.008;4.708;2022-11-15T01:30:05;31.00;;;9.43;;
19830;SDS011;10076;52.008;4.708;2022-11-15T01:32:31;32.43;;;11.27;;
19830;SDS011;10076;52.008;4.708;2022-11-15T01:34:56;34.73;;;11.10;;
19830;SDS011;10076;52.008;4.708;2022-11-15T01:37:22;28.70;;;9.60;;
19830;SDS011;10076;52.008;4.708;2022-11-15T01:39:47;24.57;;;9.50;;
19830;SDS011;10076;52.008;4.708;2022-11-15T01:42:13;31.57;;;11.70;;
19830;SDS011;10076;52.008;4.708;2022-11-15T01:44:40;37.57;;;12.07;;
19830;SDS011;10076;52.008;4.708;2022-11-15T01:47:09;27.50;;;10.17;;
19830;SDS011;10076;52.008;4.708;2022-11-15T01:49:39;30.37;;;11.07;;
19830;SDS011;10076;52.008;4.708;2022-11-15T01:52:17;34.10;;;12.03;;
19830;SDS011;10076;52.008;4.708;2022-11-15T01:54:46;31.43;;;9.50;;
19830;SDS011;10076;52.008;4.708;2022-11-15T01:57:15;32.20;;;11.47;;
19830;SDS011;10076;52.008;4.708;2022-11-15T01:59:41;31.73;;;10.70;;
19830;SDS011;10076;52.008;4.708;2022-11-15T02:02:09;32.77;;;10.67;;
19830;SDS011;10076;52.008;4.708;2022-11-15T02:04:39;26.47;;;10.33;;
19830;SDS011;10076;52.008;4.708;2022-11-15T02:07:10;31.43;;;10.43;;
19830;SDS011;10076;52.008;4.708;2022-11-15T02:09:38;28.77;;;10.00;;
19830;SDS011;10076;52.008;4.708;2022-11-15T02:12:05;31.23;;;10.30;;
19830;SDS011;10076;52.008;4.708;2022-11-15T02:14:33;28.30;;;10.80;;
19830;SDS011;10076;52.008;4.708;2022-11-15T02:17:21;31.90;;;10.90;;
19830;SDS011;10076;52.008;4.708;2022-11-15T02:31:36;28.43;;;10.00;;
19830;SDS011;10076;52.008;4.708;2022-11-15T02:34:08;30.60;;;10.07;;
19830;SDS011;10076;52.008;4.708;2022-11-15T02:42:32;23.83;;;8.80;;
19830;SDS011;10076;52.008;4.708;2022-11-15T02:45:20;22.10;;;10.23;;
19830;SDS011;10076;52.008;4.708;2022-11-15T02:47:54;25.60;;;9.77;;
19830;SDS011;10076;52.008;4.708;2022-11-15T02:50:24;27.83;;;9.70;;
19830;SDS011;10076;52.008;4.708;2022-11-15T02:52:52;27.63;;;9.93;;
19830;SDS011;10076;52.008;4.708;2022-11-15T02:55:30;23.33;;;10.30;;
19830;SDS011;10076;52.008;4.708;2022-11-15T02:58:16;26.73;;;10.23;;
19830;SDS011;10076;52.008;4.708;2022-11-15T03:03:48;26.60;;;9.90;;
19830;SDS011;10076;52.008;4.708;2022-11-15T03:06:44;24.87;;;9.53;;
19830;SDS011;10076;52.008;4.708;2022-11-15T03:09:21;31.80;;;11.03;;
19830;SDS011;10076;52.008;4.708;2022-11-15T03:11:50;25.23;;;9.53;;
19830;SDS011;10076;52.008;4.708;2022-11-15T03:14:25;28.80;;;9.87;;
19830;SDS011;10076;52.008;4.708;2022-11-15T03:19:44;27.13;;;10.03;;
19830;SDS011;10076;52.008;4.708;2022-11-15T03:22:16;28.50;;;10.53;;
19830;SDS011;10076;52.008;4.708;2022-11-15T03:24:43;26.80;;;9.17;;
19830;SDS011;10076;52.008;4.708;2022-11-15T03:27:12;22.33;;;9.60;;
19830;SDS011;10076;52.008;4.708;2022-11-15T03:29:44;30.00;;;9.80;;
19830;SDS011;10076;52.008;4.708;2022-11-15T03:32:17;24.80;;;9.53;;
19830;SDS011;10076;52.008;4.708;2022-11-15T03:34:50;26.37;;;9.10;;
19830;SDS011;10076;52.008;4.708;2022-11-15T03:37:21;22.87;;;9.23;;
19830;SDS011;10076;52.008;4.708;2022-11-15T03:39:49;21.63;;;9.63;;
19830;SDS011;10076;52.008;4.708;2022-11-15T03:42:30;22.77;;;9.50;;
19830;SDS011;10076;52.008;4.708;2022-11-15T03:45:21;22.60;;;9.53;;
19830;SDS011;10076;52.008;4.708;2022-11-15T03:47:58;22.07;;;8.77;;
19830;SDS011;10076;52.008;4.708;2022-11-15T03:50:27;21.97;;;8.83;;
19830;SDS011;10076;52.008;4.708;2022-11-15T03:52:54;21.00;;;9.10;;
19830;SDS011;10076;52.008;4.708;2022-11-15T03:55:21;20.40;;;9.17;;
19830;SDS011;10076;52.008;4.708;2022-11-15T03:57:50;17.93;;;8.53;;
19830;SDS011;10076;52.008;4.708;2022-11-15T04:00:18;24.33;;;8.33;;
19830;SDS011;10076;52.008;4.708;2022-11-15T04:02:43;17.03;;;7.70;;
19830;SDS011;10076;52.008;4.708;2022-11-15T04:05:08;22.97;;;8.67;;
19830;SDS011;10076;52.008;4.708;2022-11-15T04:07:33;20.03;;;8.80;;
19830;SDS011;10076;52.008;4.708;2022-11-15T04:09:59;19.13;;;8.57;;
19830;SDS011;10076;52.008;4.708;2022-11-15T04:12:38;16.37;;;7.33;;
19830;SDS011;10076;52.008;4.708;2022-11-15T04:15:08;17.37;;;7.97;;
19830;SDS011;10076;52.008;4.708;2022-11-15T04:17:39;15.47;;;7.20;;
19830;SDS011;10076;52.008;4.708;2022-11-15T04:22:56;14.90;;;7.43;;
19830;SDS011;10076;52.008;4.708;2022-11-15T04:25:41;14.97;;;6.13;;
19830;SDS011;10076;52.008;4.708;2022-11-15T04:28:08;19.40;;;6.97;;
19830;SDS011;10076;52.008;4.708;2022-11-15T04:30:33;17.80;;;6.63;;
19830;SDS011;10076;52.008;4.708;2022-11-15T04:32:59;16.53;;;6.97;;
19830;SDS011;10076;52.008;4.708;2022-11-15T04:35:24;12.80;;;6.40;;
19830;SDS011;10076;52.008;4.708;2022-11-15T04:37:49;15.40;;;6.43;;
19830;SDS011;10076;52.008;4.708;2022-11-15T04:40:15;18.50;;;7.37;;
19830;SDS011;10076;52.008;4.708;2022-11-15T04:42:41;10.47;;;5.30;;
19830;SDS011;10076;52.008;4.708;2022-11-15T04:45:09;19.47;;;7.47;;
19830;SDS011;10076;52.008;4.708;2022-11-15T04:47:35;13.67;;;6.37;;
19830;SDS011;10076;52.008;4.708;2022-11-15T04:50:01;15.50;;;5.93;;
19830;SDS011;10076;52.008;4.708;2022-11-15T04:52:26;13.00;;;6.07;;
19830;SDS011;10076;52.008;4.708;2022-11-15T04:54:51;13.93;;;6.20;;
19830;SDS011;10076;52.008;4.708;2022-11-15T04:57:17;14.13;;;6.47;;
19830;SDS011;10076;52.008;4.708;2022-11-15T04:59:42;11.63;;;5.80;;
19830;SDS011;10076;52.008;4.708;2022-11-15T05:02:07;15.07;;;5.80;;
19830;SDS011;10076;52.008;4.708;2022-11-15T05:04:33;12.50;;;6.47;;
19830;SDS011;10076;52.008;4.708;2022-11-15T05:06:58;12.87;;;5.23;;
19830;SDS011;10076;52.008;4.708;2022-11-15T05:09:23;11.27;;;6.33;;
19830;SDS011;10076;52.008;4.708;2022-11-15T05:11:49;10.50;;;5.23;;
19830;SDS011;10076;52.008;4.708;2022-11-15T05:14:14;12.00;;;5.97;;
19830;SDS011;10076;52.008;4.708;2022-11-15T05:16:40;9.10;;;5.23;;
19830;SDS011;10076;52.008;4.708;2022-11-15T05:19:06;13.23;;;5.40;;
19830;SDS011;10076;52.008;4.708;2022-11-15T05:21:31;16.67;;;5.60;;
19830;SDS011;10076;52.008;4.708;2022-11-15T05:23:58;12.97;;;5.70;;
19830;SDS011;10076;52.008;4.708;2022-11-15T05:26:23;11.63;;;5.50;;
19830;SDS011;10076;52.008;4.708;2022-11-15T05:28:53;7.67;;;4.50;;
19830;SDS011;10076;52.008;4.708;2022-11-15T05:31:20;8.07;;;4.63;;
19830;SDS011;10076;52.008;4.708;2022-11-15T05:33:45;14.33;;;6.40;;
19830;SDS011;10076;52.008;4.708;2022-11-15T05:38:54;10.13;;;5.10;;
19830;SDS011;10076;52.008;4.708;2022-11-15T05:41:20;11.17;;;4.43;;
19830;SDS011;10076;52.008;4.708;2022-11-15T05:43:51;9.40;;;5.10;;
19830;SDS011;10076;52.008;4.708;2022-11-15T05:46:18;9.40;;;4.53;;
19830;SDS011;10076;52.008;4.708;2022-11-15T05:48:44;10.33;;;4.93;;
19830;SDS011;10076;52.008;4.708;2022-11-15T05:51:12;13.57;;;5.20;;
19830;SDS011;10076;52.008;4.708;2022-11-15T05:53:40;11.53;;;4.53;;
19830;SDS011;10076;52.008;4.708;2022-11-15T05:56:06;11.73;;;4.17;;
19830;SDS011;10076;52.008;4.708;2022-11-15T05:58:33;9.27;;;4.33;;
19830;SDS011;10076;52.008;4.708;2022-11-15T06:00:59;7.97;;;4.43;;
19830;SDS011;10076;52.008;4.708;2022-11-15T06:03:25;11.80;;;5.00;;
19830;SDS011;10076;52.008;4.708;2022-11-15T06:05:50;16.03;;;4.63;;
19830;SDS011;10076;52.008;4.708;2022-11-15T06:08:15;7.03;;;4.23;;
19830;SDS011;10076;52.008;4.708;2022-11-15T06:10:40;7.87;;;4.17;;
19830;SDS011;10076;52.008;4.708;2022-11-15T06:13:06;8.93;;;3.87;;
19830;SDS011;10076;52.008;4.708;2022-11-15T06:15:31;5.57;;;3.27;;
19830;SDS011;10076;52.008;4.708;2022-11-15T06:17:58;9.07;;;3.77;;
19830;SDS011;10076;52.008;4.708;2022-11-15T06:20:24;6.90;;;3.70;;
19830;SDS011;10076;52.008;4.708;2022-11-15T06:22:57;11.63;;;4.60;;
19830;SDS011;10076;52.008;4.708;2022-11-15T06:25:26;7.77;;;3.87;;
19830;SDS011;10076;52.008;4.708;2022-11-15T06:27:52;6.13;;;3.73;;
19830;SDS011;10076;52.008;4.708;2022-11-15T06:30:19;7.40;;;3.63;;
19830;SDS011;10076;52.008;4.708;2022-11-15T06:32:44;7.60;;;3.40;;
19830;SDS011;10076;52.008;4.708;2022-11-15T06:35:10;6.17;;;3.03;;
19830;SDS011;10076;52.008;4.708;2022-11-15T06:37:35;9.57;;;4.10;;
19830;SDS011;10076;52.008;4.708;2022-11-15T06:40:01;10.30;;;4.40;;
19830;SDS011;10076;52.008;4.708;2022-11-15T06:42:26;6.63;;;3.53;;
19830;SDS011;10076;52.008;4.708;2022-11-15T06:44:51;6.47;;;3.63;;
19830;SDS011;10076;52.008;4.708;2022-11-15T06:47:17;6.20;;;2.80;;
19830;SDS011;10076;52.008;4.708;2022-11-15T06:49:42;10.83;;;3.20;;
19830;SDS011;10076;52.008;4.708;2022-11-15T06:52:07;6.23;;;3.00;;
19830;SDS011;10076;52.008;4.708;2022-11-15T06:54:32;5.23;;;3.27;;
19830;SDS011;10076;52.008;4.708;2022-11-15T06:56:58;9.50;;;3.50;;
19830;SDS011;10076;52.008;4.708;2022-11-15T06:59:23;9.77;;;3.20;;
19830;SDS011;10076;52.008;4.708;2022-11-15T07:01:48;8.10;;;2.97;;
19830;SDS011;10076;52.008;4.708;2022-11-15T07:04:14;11.03;;;3.13;;
19830;SDS011;10076;52.008;4.708;2022-11-15T07:06:39;7.80;;;3.30;;
19830;SDS011;10076;52.008;4.708;2022-11-15T07:09:04;5.40;;;2.70;;
19830;SDS011;10076;52.008;4.708;2022-11-15T07:11:30;6.80;;;3.27;;
19830;SDS011;10076;52.008;4.708;2022-11-15T07:13:55;10.17;;;3.10;;
19830;SDS011;10076;52.008;4.708;2022-11-15T07:16:20;6.67;;;2.73;;
19830;SDS011;10076;52.008;4.708;2022-11-15T07:18:45;5.47;;;2.63;;
19830;SDS011;10076;52.008;4.708;2022-11-15T07:21:11;5.40;;;2.40;;
19830;SDS011;10076;52.008;4.708;2022-11-15T07:23:37;6.23;;;3.00;;
19830;SDS011;10076;52.008;4.708;2022-11-15T07:26:04;5.33;;;2.83;;
19830;SDS011;10076;52.008;4.708;2022-11-15T07:28:29;5.10;;;2.43;;
19830;SDS011;10076;52.008;4.708;2022-11-15T07:30:55;7.07;;;2.80;;
19830;SDS011;10076;52.008;4.708;2022-11-15T07:33:20;4.80;;;2.67;;
19830;SDS011;10076;52.008;4.708;2022-11-15T07:35:46;5.77;;;2.93;;
19830;SDS011;10076;52.008;4.708;2022-11-15T07:38:14;6.17;;;3.90;;
19830;SDS011;10076;52.008;4.708;2022-11-15T07:40:40;9.73;;;4.30;;
19830;SDS011;10076;52.008;4.708;2022-11-15T07:43:06;11.13;;;4.40;;
19830;SDS011;10076;52.008;4.708;2022-11-15T07:45:33;11.77;;;4.30;;
19830;SDS011;10076;52.008;4.708;2022-11-15T07:47:59;11.10;;;4.57;;
19830;SDS011;10076;52.008;4.708;2022-11-15T07:50:25;7.10;;;4.50;;
19830;SDS011;10076;52.008;4.708;2022-11-15T07:52:58;7.83;;;4.13;;
19830;SDS011;10076;52.008;4.708;2022-11-15T07:55:25;9.60;;;3.80;;
19830;SDS011;10076;52.008;4.708;2022-11-15T07:57:53;6.80;;;4.03;;
19830;SDS011;10076;52.008;4.708;2022-11-15T08:00:24;9.43;;;4.13;;
19830;SDS011;10076;52.008;4.708;2022-11-15T08:02:49;8.83;;;4.20;;
19830;SDS011;10076;52.008;4.708;2022-11-15T08:05:15;8.37;;;4.07;;
19830;SDS011;10076;52.008;4.708;2022-11-15T08:07:40;8.47;;;4.57;;
19830;SDS011;10076;52.008;4.708;2022-11-15T08:10:05;11.27;;;4.03;;
19830;SDS011;10076;52.008;4.708;2022-11-15T08:12:32;16.53;;;4.10;;
19830;SDS011;10076;52.008;4.708;2022-11-15T08:14:58;8.50;;;3.97;;
19830;SDS011;10076;52.008;4.708;2022-11-15T08:17:24;9.03;;;3.90;;
19830;SDS011;10076;52.008;4.708;2022-11-15T08:19:49;7.17;;;3.57;;
19830;SDS011;10076;52.008;4.708;2022-11-15T08:22:15;9.37;;;4.10;;
19830;SDS011;10076;52.008;4.708;2022-11-15T08:24:40;9.57;;;5.20;;
19830;SDS011;10076;52.008;4.708;2022-11-15T08:27:06;12.57;;;4.93;;
19830;SDS011;10076;52.008;4.708;2022-11-15T08:29:39;13.97;;;4.03;;
19830;SDS011;10076;52.008;4.708;2022-11-15T08:32:06;9.27;;;4.27;;
19830;SDS011;10076;52.008;4.708;2022-11-15T08:34:32;10.60;;;3.67;;
19830;SDS011;10076;52.008;4.708;2022-11-15T08:36:57;10.70;;;3.57;;
19830;SDS011;10076;52.008;4.708;2022-11-15T08:39:22;10.40;;;3.37;;
19830;SDS011;10076;52.008;4.708;2022-11-15T08:41:47;5.47;;;2.93;;
19830;SDS011;10076;52.008;4.708;2022-11-15T08:44:13;7.60;;;3.40;;
19830;SDS011;10076;52.008;4.708;2022-11-15T08:46:38;7.30;;;3.63;;
19830;SDS011;10076;52.008;4.708;2022-11-15T08:49:03;7.20;;;3.30;;
19830;SDS011;10076;52.008;4.708;2022-11-15T08:51:29;6.53;;;3.60;;
19830;SDS011;10076;52.008;4.708;2022-11-15T08:53:54;5.63;;;3.43;;
19830;SDS011;10076;52.008;4.708;2022-11-15T08:56:19;9.57;;;3.33;;
19830;SDS011;10076;52.008;4.708;2022-11-15T08:58:44;8.43;;;3.27;;
19830;SDS011;10076;52.008;4.708;2022-11-15T09:01:15;6.50;;;3.60;;
19830;SDS011;10076;52.008;4.708;2022-11-15T09:03:42;8.40;;;3.57;;
19830;SDS011;10076;52.008;4.708;2022-11-15T09:06:08;7.20;;;3.97;;
19830;SDS011;10076;52.008;4.708;2022-11-15T09:08:33;6.70;;;3.43;;
19830;SDS011;10076;52.008;4.708;2022-11-15T09:11:02;8.57;;;3.07;;
19830;SDS011;10076;52.008;4.708;2022-11-15T09:13:28;9.10;;;3.13;;
19830;SDS011;10076;52.008;4.708;2022-11-15T09:15:57;6.07;;;3.37;;
19830;SDS011;10076;52.008;4.708;2022-11-15T09:18:23;5.63;;;2.90;;
19830;SDS011;10076;52.008;4.708;2022-11-15T09:20:49;11.40;;;3.63;;
19830;SDS011;10076;52.008;4.708;2022-11-15T09:23:14;6.50;;;3.47;;
19830;SDS011;10076;52.008;4.708;2022-11-15T09:25:39;4.50;;;3.13;;
19830;SDS011;10076;52.008;4.708;2022-11-15T09:28:08;7.37;;;2.70;;
19830;SDS011;10076;52.008;4.708;2022-11-15T09:30:33;6.13;;;2.90;;
19830;SDS011;10076;52.008;4.708;2022-11-15T09:33:05;5.23;;;3.07;;
19830;SDS011;10076;52.008;4.708;2022-11-15T09:35:32;5.47;;;3.13;;
19830;SDS011;10076;52.008;4.708;2022-11-15T09:37:58;6.43;;;3.20;;
19830;SDS011;10076;52.008;4.708;2022-11-15T09:40:23;7.47;;;2.77;;
19830;SDS011;10076;52.008;4.708;2022-11-15T09:48:26;5.80;;;2.30;;
19830;SDS011;10076;52.008;4.708;2022-11-15T09:50:55;4.97;;;2.43;;
19830;SDS011;10076;52.008;4.708;2022-11-15T09:53:29;4.37;;;2.50;;
19830;SDS011;10076;52.008;4.708;2022-11-15T09:56:19;4.50;;;2.20;;
19830;SDS011;10076;52.008;4.708;2022-11-15T09:58:50;3.70;;;2.13;;
19830;SDS011;10076;52.008;4.708;2022-11-15T10:04:01;5.50;;;2.53;;
19830;SDS011;10076;52.008;4.708;2022-11-15T10:06:26;2.63;;;2.10;;
19830;SDS011;10076;52.008;4.708;2022-11-15T10:09:02;6.60;;;2.70;;
19830;SDS011;10076;52.008;4.708;2022-11-15T10:11:37;8.37;;;3.63;;
19830;SDS011;10076;52.008;4.708;2022-11-15T10:14:24;5.72;;;1.90;;
19830;SDS011;10076;52.008;4.708;2022-11-15T10:22:26;4.63;;;2.00;;
19830;SDS011;10076;52.008;4.708;2022-11-15T10:25:09;4.90;;;1.92;;
19830;SDS011;10076;52.008;4.708;2022-11-15T10:27:59;5.70;;;1.80;;
19830;SDS011;10076;52.008;4.708;2022-11-15T10:30:36;3.25;;;1.88;;
19830;SDS011;10076;52.008;4.708;2022-11-15T10:38:48;5.13;;;1.85;;
19830;SDS011;10076;52.008;4.708;2022-11-15T10:44:01;4.85;;;1.90;;
19830;SDS011;10076;52.008;4.708;2022-11-15T10:46:37;3.15;;;1.52;;
19830;SDS011;10076;52.008;4.708;2022-11-15T10:49:18;2.88;;;1.50;;
19830;SDS011;10076;52.008;4.708;2022-11-15T10:51:53;3.45;;;1.30;;
19830;SDS011;10076;52.008;4.708;2022-11-15T10:57:18;2.80;;;1.80;;
19830;SDS011;10076;52.008;4.708;2022-11-15T11:02:32;8.30;;;1.50;;
19830;SDS011;10076;52.008;4.708;2022-11-15T11:05:00;3.65;;;1.70;;
19830;SDS011;10076;52.008;4.708;2022-11-15T11:07:28;1.95;;;1.35;;
19830;SDS011;10076;52.008;4.708;2022-11-15T11:09:56;4.88;;;1.63;;
19830;SDS011;10076;52.008;4.708;2022-11-15T11:12:27;4.15;;;1.50;;
19830;SDS011;10076;52.008;4.708;2022-11-15T11:14:55;4.38;;;1.33;;
19830;SDS011;10076;52.008;4.708;2022-11-15T11:17:29;3.08;;;1.58;;
19830;SDS011;10076;52.008;4.708;2022-11-15T11:23:03;5.75;;;1.40;;
19830;SDS011;10076;52.008;4.708;2022-11-15T11:28:42;2.58;;;2.05;;
19830;SDS011;10076;52.008;4.708;2022-11-15T11:31:24;2.25;;;1.42;;
19830;SDS011;10076;52.008;4.708;2022-11-15T11:36:39;2.22;;;1.20;;
19830;SDS011;10076;52.008;4.708;2022-11-15T11:45:03;1.35;;;0.90;;
19830;SDS011;10076;52.008;4.708;2022-11-15T11:47:40;2.22;;;1.00;;
19830;SDS011;10076;52.008;4.708;2022-11-15T11:56:02;3.42;;;1.25;;
19830;SDS011;10076;52.008;4.708;2022-11-15T11:58:37;2.38;;;1.25;;
19830;SDS011;10076;52.008;4.708;2022-11-15T12:04:00;1.25;;;0.93;;
19830;SDS011;10076;52.008;4.708;2022-11-15T12:06:42;6.13;;;1.10;;
19830;SDS011;10076;52.008;4.708;2022-11-15T12:09:29;2.38;;;1.00;;
19830;SDS011;10076;52.008;4.708;2022-11-15T12:14:54;5.85;;;1.23;;
19830;SDS011;10076;52.008;4.708;2022-11-15T12:17:24;1.73;;;1.08;;
19830;SDS011;10076;52.008;4.708;2022-11-15T12:19:52;2.85;;;0.90;;
19830;SDS011;10076;52.008;4.708;2022-11-15T12:22:36;3.20;;;1.30;;
19830;SDS011;10076;52.008;4.708;2022-11-15T12:25:08;5.65;;;1.30;;
19830;SDS011;10076;52.008;4.708;2022-11-15T12:28:27;3.20;;;0.95;;
19830;SDS011;10076;52.008;4.708;2022-11-15T12:30:46;0.98;;;0.85;;
19830;SDS011;10076;52.008;4.708;2022-11-15T12:36:02;3.40;;;0.82;;
19830;SDS011;10076;52.008;4.708;2022-11-15T12:41:18;4.15;;;1.08;;
19830;SDS011;10076;52.008;4.708;2022-11-15T12:43:44;1.73;;;0.85;;
19830;SDS011;10076;52.008;4.708;2022-11-15T13:28:31;1.95;;;0.73;;
19830;SDS011;10076;52.008;4.708;2022-11-15T13:31:14;1.48;;;1.13;;
19830;SDS011;10076;52.008;4.708;2022-11-15T13:33:51;1.23;;;1.10;;
19830;SDS011;10076;52.008;4.708;2022-11-15T13:36:21;1.58;;;1.20;;
19830;SDS011;10076;52.008;4.708;2022-11-15T13:41:57;4.13;;;1.30;;
19830;SDS011;10076;52.008;4.708;2022-11-15T13:44:30;3.28;;;1.25;;
19830;SDS011;10076;52.008;4.708;2022-11-15T13:47:04;1.15;;;0.70;;
19830;SDS011;10076;52.008;4.708;2022-11-15T13:49:31;5.00;;;1.92;;
19830;SDS011;10076;52.008;4.708;2022-11-15T13:51:59;5.97;;;1.48;;
19830;SDS011;10076;52.008;4.708;2022-11-15T13:54:32;2.28;;;1.42;;
19830;SDS011;10076;52.008;4.708;2022-11-15T13:57:11;1.40;;;1.00;;
19830;SDS011;10076;52.008;4.708;2022-11-15T13:59:45;1.83;;;1.05;;
19830;SDS011;10076;52.008;4.708;2022-11-15T14:02:14;0.73;;;0.73;;
19830;SDS011;10076;52.008;4.708;2022-11-15T14:05:24;1.73;;;0.80;;
19830;SDS011;10076;52.008;4.708;2022-11-15T14:07:58;2.80;;;1.00;;
19830;SDS011;10076;52.008;4.708;2022-11-15T14:10:32;4.45;;;0.82;;
19830;SDS011;10076;52.008;4.708;2022-11-15T14:12:59;1.23;;;0.70;;
19830;SDS011;10076;52.008;4.708;2022-11-15T14:17:53;2.80;;;1.42;;
19830;SDS011;10076;52.008;4.708;2022-11-15T14:20:20;2.45;;;1.15;;
19830;SDS011;10076;52.008;4.708;2022-11-15T14:22:54;2.20;;;0.93;;
19830;SDS011;10076;52.008;4.708;2022-11-15T14:25:25;2.80;;;0.90;;
19830;SDS011;10076;52.008;4.708;2022-11-15T14:30:35;5.18;;;1.40;;
19830;SDS011;10076;52.008;4.708;2022-11-15T14:33:01;2.35;;;1.10;;
19830;SDS011;10076;52.008;4.708;2022-11-15T14:35:27;4.53;;;2.42;;
19830;SDS011;10076;52.008;4.708;2022-11-15T14:37:53;2.57;;;1.23;;
19830;SDS011;10076;52.008;4.708;2022-11-15T14:40:20;2.17;;;1.40;;
19830;SDS011;10076;52.008;4.708;2022-11-15T14:42:47;2.83;;;1.00;;
19830;SDS011;10076;52.008;4.708;2022-11-15T14:45:17;1.98;;;0.98;;
19830;SDS011;10076;52.008;4.708;2022-11-15T14:47:44;3.72;;;1.27;;
19830;SDS011;10076;52.008;4.708;2022-11-15T14:50:11;3.47;;;1.38;;
19830;SDS011;10076;52.008;4.708;2022-11-15T14:52:41;1.90;;;1.13;;
19830;SDS011;10076;52.008;4.708;2022-11-15T14:55:49;3.70;;;1.60;;
19830;SDS011;10076;52.008;4.708;2022-11-15T14:57:59;3.22;;;1.00;;
19830;SDS011;10076;52.008;4.708;2022-11-15T15:00:27;2.72;;;1.55;;
19830;SDS011;10076;52.008;4.708;2022-11-15T15:02:53;1.43;;;1.23;;
19830;SDS011;10076;52.008;4.708;2022-11-15T15:05:23;3.22;;;1.20;;
19830;SDS011;10076;52.008;4.708;2022-11-15T15:07:50;0.97;;;0.80;;
19830;SDS011;10076;52.008;4.708;2022-11-15T15:10:18;2.63;;;1.00;;
19830;SDS011;10076;52.008;4.708;2022-11-15T15:12:44;0.77;;;0.70;;
19830;SDS011;10076;52.008;4.708;2022-11-15T15:15:13;6.07;;;1.27;;
19830;SDS011;10076;52.008;4.708;2022-11-15T15:17:46;4.35;;;1.83;;
19830;SDS011;10076;52.008;4.708;2022-11-15T15:20:11;4.57;;;1.50;;
19830;SDS011;10076;52.008;4.708;2022-11-15T15:22:37;5.07;;;2.00;;
19830;SDS011;10076;52.008;4.708;2022-11-15T15:25:03;6.27;;;1.30;;
19830;SDS011;10076;52.008;4.708;2022-11-15T15:27:40;1.13;;;1.03;;
19830;SDS011;10076;52.008;4.708;2022-11-15T15:30:06;1.70;;;1.10;;
19830;SDS011;10076;52.008;4.708;2022-11-15T15:32:31;3.40;;;1.50;;
19830;SDS011;10076;52.008;4.708;2022-11-15T15:34:56;4.57;;;1.10;;
19830;SDS011;10076;52.008;4.708;2022-11-15T15:37:23;3.50;;;0.90;;
19830;SDS011;10076;52.008;4.708;2022-11-15T15:39:50;0.98;;;0.77;;
19830;SDS011;10076;52.008;4.708;2022-11-15T15:42:19;1.20;;;0.80;;
19830;SDS011;10076;52.008;4.708;2022-11-15T15:44:46;1.70;;;0.83;;
19830;SDS011;10076;52.008;4.708;2022-11-15T15:47:13;6.37;;;1.93;;
19830;SDS011;10076;52.008;4.708;2022-11-15T15:49:41;2.63;;;1.23;;
19830;SDS011;10076;52.008;4.708;2022-11-15T15:52:07;4.40;;;1.20;;
19830;SDS011;10076;52.008;4.708;2022-11-15T15:54:32;8.23;;;3.20;;
19830;SDS011;10076;52.008;4.708;2022-11-15T15:56:57;1.67;;;1.10;;
19830;SDS011;10076;52.008;4.708;2022-11-15T15:59:23;2.93;;;1.20;;
19830;SDS011;10076;52.008;4.708;2022-11-15T16:01:48;9.13;;;2.90;;
19830;SDS011;10076;52.008;4.708;2022-11-15T16:04:13;6.63;;;1.83;;
19830;SDS011;10076;52.008;4.708;2022-11-15T16:06:39;2.70;;;1.43;;
19830;SDS011;10076;52.008;4.708;2022-11-15T16:09:10;1.35;;;0.90;;
19830;SDS011;10076;52.008;4.708;2022-11-15T16:11:44;4.27;;;1.37;;
19830;SDS011;10076;52.008;4.708;2022-11-15T16:14:10;3.10;;;1.70;;
19830;SDS011;10076;52.008;4.708;2022-11-15T16:16:36;5.30;;;2.00;;
19830;SDS011;10076;52.008;4.708;2022-11-15T16:19:03;8.53;;;4.47;;
19830;SDS011;10076;52.008;4.708;2022-11-15T16:21:28;3.13;;;1.30;;
19830;SDS011;10076;52.008;4.708;2022-11-15T16:23:54;2.10;;;1.30;;
19830;SDS011;10076;52.008;4.708;2022-11-15T16:26:20;2.10;;;1.13;;
19830;SDS011;10076;52.008;4.708;2022-11-15T16:28:49;1.73;;;1.30;;
19830;SDS011;10076;52.008;4.708;2022-11-15T16:31:14;2.90;;;1.20;;
19830;SDS011;10076;52.008;4.708;2022-11-15T16:33:41;3.53;;;1.33;;
19830;SDS011;10076;52.008;4.708;2022-11-15T16:36:20;2.07;;;1.10;;
19830;SDS011;10076;52.008;4.708;2022-11-15T16:38:47;2.57;;;1.03;;
19830;SDS011;10076;52.008;4.708;2022-11-15T16:41:12;2.70;;;0.90;;
19830;SDS011;10076;52.008;4.708;2022-11-15T16:43:38;2.53;;;1.30;;
19830;SDS011;10076;52.008;4.708;2022-11-15T16:46:08;3.43;;;1.47;;
19830;SDS011;10076;52.008;4.708;2022-11-15T16:48:38;3.27;;;1.50;;
19830;SDS011;10076;52.008;4.708;2022-11-15T16:51:04;4.57;;;1.80;;
19830;SDS011;10076;52.008;4.708;2022-11-15T16:53:29;2.60;;;1.47;;
19830;SDS011;10076;52.008;4.708;2022-11-15T16:55:55;1.47;;;1.20;;
19830;SDS011;10076;52.008;4.708;2022-11-15T16:58:20;2.60;;;1.47;;
19830;SDS011;10076;52.008;4.708;2022-11-15T17:00:49;3.20;;;1.50;;
19830;SDS011;10076;52.008;4.708;2022-11-15T17:03:16;2.83;;;1.83;;
19830;SDS011;10076;52.008;4.708;2022-11-15T17:05:41;1.97;;;1.27;;
19830;SDS011;10076;52.008;4.708;2022-11-15T17:08:07;1.50;;;1.33;;